Bridgewater, Massachusetts
Current Conditions -  °F | °C
As of 9:52 AM on Friday 19 Dec 2014 (Local Time) from KTAN Reporting Station
Overcast Overcast  
Wind Chill: 30°   Ceiling: 3200
Heat Index: 36°   Visibility: 10mi
Dew Point: 24°   Wind: 8mph
Humidity: 62%   Direction: 320°NW
Pressure: 29.95"   Gusts: NA
Location:  41.99°N, 70.98°W
Report Text: KTAN 191452Z AUTO 32007KT 10SM OVC032 02/M04 A2995 RMK AO2 SLP143 I3000 T00221044 53016
Loading
Personal Weather Stations






























Interactive Weather Map New forecast layout! Learn more

10-Day Weather Forecast

Advertisements
Track Severe Weather on mobile